sensor_id;sensor_type;location;lat;lon;timestamp;temperature;humidity
25440;DHT22;13365;52.208;5.488;2024-03-06T00:00:14;13.70;99.90
25440;DHT22;13365;52.208;5.488;2024-03-06T00:02:40;13.70;99.90
25440;DHT22;13365;52.208;5.488;2024-03-06T00:05:05;13.70;99.90
25440;DHT22;13365;52.208;5.488;2024-03-06T00:07:33;13.80;99.90
25440;DHT22;13365;52.208;5.488;2024-03-06T00:09:58;13.70;99.90
25440;DHT22;13365;52.208;5.488;2024-03-06T00:12:24;13.70;99.90
25440;DHT22;13365;52.208;5.488;2024-03-06T00:14:49;13.50;99.90
25440;DHT22;13365;52.208;5.488;2024-03-06T00:17:14;13.50;99.90
25440;DHT22;13365;52.208;5.488;2024-03-06T00:19:40;13.50;99.90
25440;DHT22;13365;52.208;5.488;2024-03-06T00:22:06;13.50;99.90
25440;DHT22;13365;52.208;5.488;2024-03-06T00:24:31;13.50;99.90
25440;DHT22;13365;52.208;5.488;2024-03-06T00:26:57;13.50;99.90
25440;DHT22;13365;52.208;5.488;2024-03-06T00:29:23;13.50;99.90
25440;DHT22;13365;52.208;5.488;2024-03-06T00:31:48;13.50;99.90
25440;DHT22;13365;52.208;5.488;2024-03-06T00:34:14;13.50;99.90
25440;DHT22;13365;52.208;5.488;2024-03-06T00:36:40;13.50;99.90
25440;DHT22;13365;52.208;5.488;2024-03-06T00:39:06;13.60;99.90
25440;DHT22;13365;52.208;5.488;2024-03-06T00:41:33;13.50;99.90
25440;DHT22;13365;52.208;5.488;2024-03-06T00:43:59;13.50;99.90
25440;DHT22;13365;52.208;5.488;2024-03-06T00:46:25;13.50;99.90
25440;DHT22;13365;52.208;5.488;2024-03-06T00:48:50;13.50;99.90
25440;DHT22;13365;52.208;5.488;2024-03-06T00:51:16;13.50;99.90
25440;DHT22;13365;52.208;5.488;2024-03-06T00:53:41;13.50;99.90
25440;DHT22;13365;52.208;5.488;2024-03-06T00:56:07;13.60;99.90
25440;DHT22;13365;52.208;5.488;2024-03-06T00:58:32;13.60;99.90
25440;DHT22;13365;52.208;5.488;2024-03-06T01:00:58;13.50;99.90
25440;DHT22;13365;52.208;5.488;2024-03-06T01:03:24;13.60;99.90
25440;DHT22;13365;52.208;5.488;2024-03-06T01:05:50;13.60;99.90
25440;DHT22;13365;52.208;5.488;2024-03-06T01:08:17;13.60;99.90
25440;DHT22;13365;52.208;5.488;2024-03-06T01:10:43;13.60;99.90
25440;DHT22;13365;52.208;5.488;2024-03-06T01:13:08;13.60;99.90
25440;DHT22;13365;52.208;5.488;2024-03-06T01:15:36;13.60;99.90
25440;DHT22;13365;52.208;5.488;2024-03-06T01:18:03;13.60;99.90
25440;DHT22;13365;52.208;5.488;2024-03-06T01:20:29;13.60;99.90
25440;DHT22;13365;52.208;5.488;2024-03-06T01:22:54;13.60;99.90
25440;DHT22;13365;52.208;5.488;2024-03-06T01:25:20;13.60;99.90
25440;DHT22;13365;52.208;5.488;2024-03-06T01:27:47;13.60;99.90
25440;DHT22;13365;52.208;5.488;2024-03-06T01:30:13;13.50;99.90
25440;DHT22;13365;52.208;5.488;2024-03-06T01:32:39;13.50;99.90
25440;DHT22;13365;52.208;5.488;2024-03-06T01:35:04;13.50;99.90
25440;DHT22;13365;52.208;5.488;2024-03-06T01:37:30;13.50;99.90
25440;DHT22;13365;52.208;5.488;2024-03-06T01:39:56;13.50;99.90
25440;DHT22;13365;52.208;5.488;2024-03-06T01:42:21;13.50;99.90
25440;DHT22;13365;52.208;5.488;2024-03-06T01:44:47;13.50;99.90
25440;DHT22;13365;52.208;5.488;2024-03-06T01:47:12;13.50;99.90
25440;DHT22;13365;52.208;5.488;2024-03-06T01:49:37;13.50;99.90
25440;DHT22;13365;52.208;5.488;2024-03-06T01:52:03;13.60;99.90
25440;DHT22;13365;52.208;5.488;2024-03-06T01:54:29;13.50;99.90
25440;DHT22;13365;52.208;5.488;2024-03-06T01:56:56;13.50;99.90
25440;DHT22;13365;52.208;5.488;2024-03-06T01:59:23;13.50;99.90
25440;DHT22;13365;52.208;5.488;2024-03-06T02:01:52;13.40;99.90
25440;DHT22;13365;52.208;5.488;2024-03-06T02:04:20;13.40;99.90
25440;DHT22;13365;52.208;5.488;2024-03-06T02:06:45;13.40;99.90
25440;DHT22;13365;52.208;5.488;2024-03-06T02:09:11;13.50;99.90
25440;DHT22;13365;52.208;5.488;2024-03-06T02:11:39;13.40;99.90
25440;DHT22;13365;52.208;5.488;2024-03-06T02:14:04;13.40;99.90
25440;DHT22;13365;52.208;5.488;2024-03-06T02:16:31;13.30;99.90
25440;DHT22;13365;52.208;5.488;2024-03-06T02:18:57;13.20;99.90
25440;DHT22;13365;52.208;5.488;2024-03-06T02:21:24;13.20;99.90
25440;DHT22;13365;52.208;5.488;2024-03-06T02:23:49;13.20;99.90
25440;DHT22;13365;52.208;5.488;2024-03-06T02:26:19;13.10;99.90
25440;DHT22;13365;52.208;5.488;2024-03-06T02:31:15;13.00;99.90
25440;DHT22;13365;52.208;5.488;2024-03-06T02:33:40;12.80;99.90
25440;DHT22;13365;52.208;5.488;2024-03-06T02:36:06;12.90;99.90
25440;DHT22;13365;52.208;5.488;2024-03-06T02:38:31;12.80;99.90
25440;DHT22;13365;52.208;5.488;2024-03-06T02:40:57;12.80;99.90
25440;DHT22;13365;52.208;5.488;2024-03-06T02:43:22;12.70;99.90
25440;DHT22;13365;52.208;5.488;2024-03-06T02:45:48;12.60;99.90
25440;DHT22;13365;52.208;5.488;2024-03-06T02:48:13;12.60;99.90
25440;DHT22;13365;52.208;5.488;2024-03-06T02:50:39;12.60;99.90
25440;DHT22;13365;52.208;5.488;2024-03-06T02:53:04;12.50;99.90
25440;DHT22;13365;52.208;5.488;2024-03-06T02:55:30;12.40;99.90
25440;DHT22;13365;52.208;5.488;2024-03-06T02:57:55;12.50;99.90
25440;DHT22;13365;52.208;5.488;2024-03-06T03:00:21;12.50;99.90
25440;DHT22;13365;52.208;5.488;2024-03-06T03:02:47;12.50;99.90
25440;DHT22;13365;52.208;5.488;2024-03-06T03:05:13;12.50;99.90
25440;DHT22;13365;52.208;5.488;2024-03-06T03:07:38;12.40;99.90
25440;DHT22;13365;52.208;5.488;2024-03-06T03:10:04;12.40;99.90
25440;DHT22;13365;52.208;5.488;2024-03-06T03:12:29;12.40;99.90
25440;DHT22;13365;52.208;5.488;2024-03-06T03:14:55;12.40;99.90
25440;DHT22;13365;52.208;5.488;2024-03-06T03:17:20;12.40;99.90
25440;DHT22;13365;52.208;5.488;2024-03-06T03:19:46;12.30;99.90
25440;DHT22;13365;52.208;5.488;2024-03-06T03:22:11;12.40;99.90
25440;DHT22;13365;52.208;5.488;2024-03-06T03:24:38;12.30;99.90
25440;DHT22;13365;52.208;5.488;2024-03-06T03:27:04;12.30;99.90
25440;DHT22;13365;52.208;5.488;2024-03-06T03:29:29;12.30;99.90
25440;DHT22;13365;52.208;5.488;2024-03-06T03:31:55;12.30;99.90
25440;DHT22;13365;52.208;5.488;2024-03-06T03:34:20;12.20;99.90
25440;DHT22;13365;52.208;5.488;2024-03-06T03:36:46;12.10;99.90
25440;DHT22;13365;52.208;5.488;2024-03-06T03:39:12;12.00;99.90
25440;DHT22;13365;52.208;5.488;2024-03-06T03:41:44;12.00;99.90
25440;DHT22;13365;52.208;5.488;2024-03-06T03:44:17;12.00;99.90
25440;DHT22;13365;52.208;5.488;2024-03-06T03:46:44;11.90;99.90
25440;DHT22;13365;52.208;5.488;2024-03-06T03:49:09;12.00;99.90
25440;DHT22;13365;52.208;5.488;2024-03-06T03:51:35;12.10;99.90
25440;DHT22;13365;52.208;5.488;2024-03-06T03:54:01;12.00;99.90
25440;DHT22;13365;52.208;5.488;2024-03-06T03:56:27;12.00;99.90
25440;DHT22;13365;52.208;5.488;2024-03-06T03:58:52;12.00;99.90
25440;DHT22;13365;52.208;5.488;2024-03-06T04:01:18;12.20;99.90
25440;DHT22;13365;52.208;5.488;2024-03-06T04:03:43;12.10;99.90
25440;DHT22;13365;52.208;5.488;2024-03-06T04:06:10;12.10;99.90
25440;DHT22;13365;52.208;5.488;2024-03-06T04:08:35;12.10;99.90
25440;DHT22;13365;52.208;5.488;2024-03-06T04:11:03;12.10;99.90
25440;DHT22;13365;52.208;5.488;2024-03-06T04:13:29;12.10;99.90
25440;DHT22;13365;52.208;5.488;2024-03-06T04:15:54;12.10;99.90
25440;DHT22;13365;52.208;5.488;2024-03-06T04:18:21;12.20;99.90
25440;DHT22;13365;52.208;5.488;2024-03-06T04:20:46;12.20;99.90
25440;DHT22;13365;52.208;5.488;2024-03-06T04:23:12;12.10;99.90
25440;DHT22;13365;52.208;5.488;2024-03-06T04:25:37;12.10;99.90
25440;DHT22;13365;52.208;5.488;2024-03-06T04:28:05;12.10;99.90
25440;DHT22;13365;52.208;5.488;2024-03-06T04:30:33;12.20;99.90
25440;DHT22;13365;52.208;5.488;2024-03-06T04:32:58;12.30;99.90
25440;DHT22;13365;52.208;5.488;2024-03-06T04:35:24;12.10;99.90
25440;DHT22;13365;52.208;5.488;2024-03-06T04:37:50;12.10;99.90
25440;DHT22;13365;52.208;5.488;2024-03-06T04:40:15;12.00;99.90
25440;DHT22;13365;52.208;5.488;2024-03-06T04:42:46;12.00;99.90
25440;DHT22;13365;52.208;5.488;2024-03-06T04:45:14;12.00;99.90
25440;DHT22;13365;52.208;5.488;2024-03-06T04:47:40;12.00;99.90
25440;DHT22;13365;52.208;5.488;2024-03-06T04:50:11;12.00;99.90
25440;DHT22;13365;52.208;5.488;2024-03-06T04:52:38;11.90;99.90
25440;DHT22;13365;52.208;5.488;2024-03-06T04:55:04;11.80;99.90
25440;DHT22;13365;52.208;5.488;2024-03-06T04:57:29;11.80;99.90
25440;DHT22;13365;52.208;5.488;2024-03-06T04:59:55;11.70;99.90
25440;DHT22;13365;52.208;5.488;2024-03-06T05:02:21;11.70;99.90
25440;DHT22;13365;52.208;5.488;2024-03-06T05:04:46;11.70;99.90
25440;DHT22;13365;52.208;5.488;2024-03-06T05:07:12;11.50;99.90
25440;DHT22;13365;52.208;5.488;2024-03-06T05:09:38;11.30;99.90
25440;DHT22;13365;52.208;5.488;2024-03-06T05:12:06;11.30;99.90
25440;DHT22;13365;52.208;5.488;2024-03-06T05:14:31;11.20;99.90
25440;DHT22;13365;52.208;5.488;2024-03-06T05:16:57;11.30;99.90
25440;DHT22;13365;52.208;5.488;2024-03-06T05:19:22;11.30;99.90
25440;DHT22;13365;52.208;5.488;2024-03-06T05:21:48;11.20;99.90
25440;DHT22;13365;52.208;5.488;2024-03-06T05:24:13;11.10;99.90
25440;DHT22;13365;52.208;5.488;2024-03-06T05:26:39;11.10;99.90
25440;DHT22;13365;52.208;5.488;2024-03-06T05:29:04;11.00;99.90
25440;DHT22;13365;52.208;5.488;2024-03-06T05:31:29;10.90;99.90
25440;DHT22;13365;52.208;5.488;2024-03-06T05:33:55;10.90;99.90
25440;DHT22;13365;52.208;5.488;2024-03-06T05:36:20;10.80;99.90
25440;DHT22;13365;52.208;5.488;2024-03-06T05:38:46;10.80;99.90
25440;DHT22;13365;52.208;5.488;2024-03-06T05:41:13;10.70;99.90
25440;DHT22;13365;52.208;5.488;2024-03-06T05:43:38;10.70;99.90
25440;DHT22;13365;52.208;5.488;2024-03-06T05:46:06;10.50;99.90
25440;DHT22;13365;52.208;5.488;2024-03-06T05:48:31;10.40;99.90
25440;DHT22;13365;52.208;5.488;2024-03-06T05:50:58;10.40;99.90
25440;DHT22;13365;52.208;5.488;2024-03-06T05:53:23;10.60;99.90
25440;DHT22;13365;52.208;5.488;2024-03-06T05:55:49;10.30;99.90
25440;DHT22;13365;52.208;5.488;2024-03-06T05:58:14;10.40;99.90
25440;DHT22;13365;52.208;5.488;2024-03-06T06:00:41;10.30;99.90
25440;DHT22;13365;52.208;5.488;2024-03-06T06:03:07;10.10;99.90
25440;DHT22;13365;52.208;5.488;2024-03-06T06:05:33;10.00;99.90
25440;DHT22;13365;52.208;5.488;2024-03-06T06:07:58;10.00;99.90
25440;DHT22;13365;52.208;5.488;2024-03-06T06:10:25;9.90;99.90
25440;DHT22;13365;52.208;5.488;2024-03-06T06:12:50;9.90;99.90
25440;DHT22;13365;52.208;5.488;2024-03-06T06:15:16;9.80;99.90
25440;DHT22;13365;52.208;5.488;2024-03-06T06:17:41;9.90;99.90
25440;DHT22;13365;52.208;5.488;2024-03-06T06:20:09;9.80;99.90
25440;DHT22;13365;52.208;5.488;2024-03-06T06:22:39;9.80;99.90
25440;DHT22;13365;52.208;5.488;2024-03-06T06:25:04;9.80;99.90
25440;DHT22;13365;52.208;5.488;2024-03-06T06:27:30;9.80;99.90
25440;DHT22;13365;52.208;5.488;2024-03-06T06:29:56;9.80;99.90
25440;DHT22;13365;52.208;5.488;2024-03-06T06:32:23;9.80;99.90
25440;DHT22;13365;52.208;5.488;2024-03-06T06:34:48;9.80;99.90
25440;DHT22;13365;52.208;5.488;2024-03-06T06:37:14;9.80;99.90
25440;DHT22;13365;52.208;5.488;2024-03-06T06:39:40;9.90;99.90
25440;DHT22;13365;52.208;5.488;2024-03-06T06:42:06;9.80;99.90
25440;DHT22;13365;52.208;5.488;2024-03-06T06:44:31;9.80;99.90
25440;DHT22;13365;52.208;5.488;2024-03-06T06:46:57;9.80;99.90
25440;DHT22;13365;52.208;5.488;2024-03-06T06:49:22;9.90;99.90
25440;DHT22;13365;52.208;5.488;2024-03-06T06:51:48;10.10;99.90
25440;DHT22;13365;52.208;5.488;2024-03-06T06:54:14;10.00;99.90
25440;DHT22;13365;52.208;5.488;2024-03-06T06:56:41;10.10;99.90
25440;DHT22;13365;52.208;5.488;2024-03-06T06:59:07;10.00;99.90
25440;DHT22;13365;52.208;5.488;2024-03-06T07:01:32;10.10;99.90
25440;DHT22;13365;52.208;5.488;2024-03-06T07:03:58;10.20;99.90
25440;DHT22;13365;52.208;5.488;2024-03-06T07:06:23;10.20;99.90
25440;DHT22;13365;52.208;5.488;2024-03-06T07:08:50;10.40;99.90
25440;DHT22;13365;52.208;5.488;2024-03-06T07:11:18;10.40;99.90
25440;DHT22;13365;52.208;5.488;2024-03-06T07:13:44;10.40;99.90
25440;DHT22;13365;52.208;5.488;2024-03-06T07:16:10;10.50;99.90
25440;DHT22;13365;52.208;5.488;2024-03-06T07:18:35;10.60;99.90
25440;DHT22;13365;52.208;5.488;2024-03-06T07:21:01;10.70;99.90
25440;DHT22;13365;52.208;5.488;2024-03-06T07:23:26;10.80;99.90
25440;DHT22;13365;52.208;5.488;2024-03-06T07:25:52;10.80;99.90
25440;DHT22;13365;52.208;5.488;2024-03-06T07:28:17;10.90;99.90
25440;DHT22;13365;52.208;5.488;2024-03-06T07:30:44;11.00;99.90
25440;DHT22;13365;52.208;5.488;2024-03-06T07:33:09;11.10;99.90
25440;DHT22;13365;52.208;5.488;2024-03-06T07:35:35;11.20;99.90
25440;DHT22;13365;52.208;5.488;2024-03-06T07:38:03;11.40;99.90
25440;DHT22;13365;52.208;5.488;2024-03-06T07:40:30;11.40;99.90
25440;DHT22;13365;52.208;5.488;2024-03-06T07:42:56;11.50;99.90
25440;DHT22;13365;52.208;5.488;2024-03-06T07:45:21;11.60;99.90
25440;DHT22;13365;52.208;5.488;2024-03-06T07:47:47;11.70;99.90
25440;DHT22;13365;52.208;5.488;2024-03-06T07:50:13;11.80;99.90
25440;DHT22;13365;52.208;5.488;2024-03-06T07:52:44;11.90;99.90
25440;DHT22;13365;52.208;5.488;2024-03-06T07:55:10;12.10;99.90
25440;DHT22;13365;52.208;5.488;2024-03-06T07:57:35;12.20;99.90
25440;DHT22;13365;52.208;5.488;2024-03-06T08:00:01;12.20;99.90
25440;DHT22;13365;52.208;5.488;2024-03-06T08:02:27;12.20;99.90
25440;DHT22;13365;52.208;5.488;2024-03-06T08:04:53;12.30;99.90
25440;DHT22;13365;52.208;5.488;2024-03-06T08:07:18;12.30;99.90
25440;DHT22;13365;52.208;5.488;2024-03-06T08:09:44;12.40;99.90
25440;DHT22;13365;52.208;5.488;2024-03-06T08:12:09;12.50;99.90
25440;DHT22;13365;52.208;5.488;2024-03-06T08:14:35;12.60;99.90
25440;DHT22;13365;52.208;5.488;2024-03-06T08:17:00;12.70;99.90
25440;DHT22;13365;52.208;5.488;2024-03-06T08:19:27;12.90;99.90
25440;DHT22;13365;52.208;5.488;2024-03-06T08:21:53;13.00;99.90
25440;DHT22;13365;52.208;5.488;2024-03-06T08:24:18;13.00;99.90
25440;DHT22;13365;52.208;5.488;2024-03-06T08:26:44;13.00;99.90
25440;DHT22;13365;52.208;5.488;2024-03-06T08:29:09;13.00;99.90
25440;DHT22;13365;52.208;5.488;2024-03-06T08:31:35;13.10;99.90
25440;DHT22;13365;52.208;5.488;2024-03-06T08:34:00;13.20;99.90
25440;DHT22;13365;52.208;5.488;2024-03-06T08:36:26;13.10;99.90
25440;DHT22;13365;52.208;5.488;2024-03-06T08:38:51;13.20;99.90
25440;DHT22;13365;52.208;5.488;2024-03-06T08:41:17;13.30;99.90
25440;DHT22;13365;52.208;5.488;2024-03-06T08:43:42;13.40;99.90
25440;DHT22;13365;52.208;5.488;2024-03-06T08:46:08;13.50;99.90
25440;DHT22;13365;52.208;5.488;2024-03-06T08:48:33;13.60;99.90
25440;DHT22;13365;52.208;5.488;2024-03-06T08:50:59;13.70;99.90
25440;DHT22;13365;52.208;5.488;2024-03-06T08:53:24;13.80;99.90
25440;DHT22;13365;52.208;5.488;2024-03-06T08:55:50;13.80;99.90
25440;DHT22;13365;52.208;5.488;2024-03-06T08:58:15;13.80;99.90
25440;DHT22;13365;52.208;5.488;2024-03-06T09:00:41;13.50;99.90
25440;DHT22;13365;52.208;5.488;2024-03-06T09:03:06;13.50;99.90
25440;DHT22;13365;52.208;5.488;2024-03-06T09:05:32;13.30;99.90
25440;DHT22;13365;52.208;5.488;2024-03-06T09:07:57;13.20;99.90
25440;DHT22;13365;52.208;5.488;2024-03-06T09:10:23;13.30;99.90
25440;DHT22;13365;52.208;5.488;2024-03-06T09:12:48;13.20;99.90
25440;DHT22;13365;52.208;5.488;2024-03-06T09:15:14;13.20;99.90
25440;DHT22;13365;52.208;5.488;2024-03-06T09:17:39;13.20;99.90
25440;DHT22;13365;52.208;5.488;2024-03-06T09:20:05;13.30;99.90
25440;DHT22;13365;52.208;5.488;2024-03-06T09:22:35;13.50;99.90
25440;DHT22;13365;52.208;5.488;2024-03-06T09:25:01;13.60;99.90
25440;DHT22;13365;52.208;5.488;2024-03-06T09:27:27;13.40;99.90
25440;DHT22;13365;52.208;5.488;2024-03-06T09:29:52;13.40;99.90
25440;DHT22;13365;52.208;5.488;2024-03-06T09:32:18;13.40;99.90
25440;DHT22;13365;52.208;5.488;2024-03-06T09:34:44;13.20;99.90
25440;DHT22;13365;52.208;5.488;2024-03-06T09:37:10;13.20;99.90
25440;DHT22;13365;52.208;5.488;2024-03-06T09:39:35;13.20;99.90
25440;DHT22;13365;52.208;5.488;2024-03-06T09:42:00;13.20;99.90
25440;DHT22;13365;52.208;5.488;2024-03-06T09:44:27;13.10;99.90
25440;DHT22;13365;52.208;5.488;2024-03-06T09:46:52;13.20;99.90
25440;DHT22;13365;52.208;5.488;2024-03-06T09:49:20;13.40;99.90
25440;DHT22;13365;52.208;5.488;2024-03-06T09:51:46;13.80;99.90
25440;DHT22;13365;52.208;5.488;2024-03-06T09:54:13;13.90;99.90
25440;DHT22;13365;52.208;5.488;2024-03-06T09:56:44;13.80;99.90
25440;DHT22;13365;52.208;5.488;2024-03-06T09:59:10;14.00;99.90
25440;DHT22;13365;52.208;5.488;2024-03-06T10:01:39;14.00;99.90
25440;DHT22;13365;52.208;5.488;2024-03-06T10:04:19;14.10;99.90
25440;DHT22;13365;52.208;5.488;2024-03-06T10:06:45;14.40;99.90
25440;DHT22;13365;52.208;5.488;2024-03-06T10:09:11;14.60;99.90
25440;DHT22;13365;52.208;5.488;2024-03-06T10:11:40;14.70;99.90
25440;DHT22;13365;52.208;5.488;2024-03-06T10:14:05;14.90;99.90
25440;DHT22;13365;52.208;5.488;2024-03-06T10:16:31;14.90;99.90
25440;DHT22;13365;52.208;5.488;2024-03-06T10:18:56;14.90;99.90
25440;DHT22;13365;52.208;5.488;2024-03-06T10:21:31;15.10;99.90
25440;DHT22;13365;52.208;5.488;2024-03-06T10:23:57;15.10;99.90
25440;DHT22;13365;52.208;5.488;2024-03-06T10:26:24;15.20;99.90
25440;DHT22;13365;52.208;5.488;2024-03-06T10:28:50;15.40;99.90
25440;DHT22;13365;52.208;5.488;2024-03-06T10:31:26;15.60;99.90
25440;DHT22;13365;52.208;5.488;2024-03-06T10:33:51;15.50;99.90
25440;DHT22;13365;52.208;5.488;2024-03-06T10:36:18;15.50;99.90
25440;DHT22;13365;52.208;5.488;2024-03-06T10:38:44;15.80;99.90
25440;DHT22;13365;52.208;5.488;2024-03-06T10:41:13;15.60;99.90
25440;DHT22;13365;52.208;5.488;2024-03-06T10:43:39;15.90;99.90
25440;DHT22;13365;52.208;5.488;2024-03-06T10:46:06;16.10;99.90
25440;DHT22;13365;52.208;5.488;2024-03-06T10:48:31;16.20;99.90
25440;DHT22;13365;52.208;5.488;2024-03-06T10:51:00;16.30;99.90
25440;DHT22;13365;52.208;5.488;2024-03-06T10:53:28;16.20;99.90
25440;DHT22;13365;52.208;5.488;2024-03-06T10:55:54;16.20;99.90
25440;DHT22;13365;52.208;5.488;2024-03-06T10:58:20;16.00;99.90
25440;DHT22;13365;52.208;5.488;2024-03-06T11:00:46;16.20;99.90
25440;DHT22;13365;52.208;5.488;2024-03-06T11:03:12;16.30;99.90
25440;DHT22;13365;52.208;5.488;2024-03-06T11:05:41;16.50;99.90
25440;DHT22;13365;52.208;5.488;2024-03-06T11:08:10;16.40;99.90
25440;DHT22;13365;52.208;5.488;2024-03-06T11:10:37;16.40;99.90
25440;DHT22;13365;52.208;5.488;2024-03-06T11:13:03;16.40;99.90
25440;DHT22;13365;52.208;5.488;2024-03-06T11:15:30;16.60;99.90
25440;DHT22;13365;52.208;5.488;2024-03-06T11:17:56;16.60;99.90
25440;DHT22;13365;52.208;5.488;2024-03-06T11:20:21;16.40;99.90
25440;DHT22;13365;52.208;5.488;2024-03-06T11:28:06;16.70;99.90
25440;DHT22;13365;52.208;5.488;2024-03-06T11:30:31;16.80;99.90
25440;DHT22;13365;52.208;5.488;2024-03-06T11:32:57;16.80;99.90
25440;DHT22;13365;52.208;5.488;2024-03-06T11:35:24;16.80;99.90
25440;DHT22;13365;52.208;5.488;2024-03-06T11:37:49;16.80;99.90
25440;DHT22;13365;52.208;5.488;2024-03-06T11:40:22;16.70;99.90
25440;DHT22;13365;52.208;5.488;2024-03-06T11:42:49;16.90;99.90
25440;DHT22;13365;52.208;5.488;2024-03-06T11:45:18;16.70;99.90
25440;DHT22;13365;52.208;5.488;2024-03-06T11:47:57;16.90;99.90
25440;DHT22;13365;52.208;5.488;2024-03-06T11:50:24;16.80;99.90
25440;DHT22;13365;52.208;5.488;2024-03-06T11:52:51;16.90;99.90
25440;DHT22;13365;52.208;5.488;2024-03-06T11:55:16;17.00;99.90
25440;DHT22;13365;52.208;5.488;2024-03-06T11:57:42;17.10;99.90
25440;DHT22;13365;52.208;5.488;2024-03-06T12:00:08;17.10;99.90
25440;DHT22;13365;52.208;5.488;2024-03-06T12:02:36;17.10;99.90
25440;DHT22;13365;52.208;5.488;2024-03-06T12:05:02;17.30;99.90
25440;DHT22;13365;52.208;5.488;2024-03-06T12:07:28;17.40;99.90
25440;DHT22;13365;52.208;5.488;2024-03-06T12:09:53;17.40;99.90
25440;DHT22;13365;52.208;5.488;2024-03-06T12:12:19;17.40;99.90
25440;DHT22;13365;52.208;5.488;2024-03-06T12:14:55;17.40;99.90
25440;DHT22;13365;52.208;5.488;2024-03-06T12:17:20;17.30;99.90
25440;DHT22;13365;52.208;5.488;2024-03-06T12:19:47;17.30;99.90
25440;DHT22;13365;52.208;5.488;2024-03-06T12:22:13;17.40;99.90
25440;DHT22;13365;52.208;5.488;2024-03-06T12:24:44;17.50;99.90
25440;DHT22;13365;52.208;5.488;2024-03-06T12:27:09;17.70;99.90
25440;DHT22;13365;52.208;5.488;2024-03-06T12:29:35;18.00;99.90
25440;DHT22;13365;52.208;5.488;2024-03-06T12:32:02;18.20;99.20
25440;DHT22;13365;52.208;5.488;2024-03-06T12:34:28;18.00;98.30
25440;DHT22;13365;52.208;5.488;2024-03-06T12:36:55;18.10;98.20
25440;DHT22;13365;52.208;5.488;2024-03-06T12:39:23;18.20;98.10
25440;DHT22;13365;52.208;5.488;2024-03-06T12:41:51;18.30;97.50
25440;DHT22;13365;52.208;5.488;2024-03-06T12:44:16;18.20;97.20
25440;DHT22;13365;52.208;5.488;2024-03-06T12:46:42;18.10;97.50
25440;DHT22;13365;52.208;5.488;2024-03-06T12:49:07;18.20;97.50
25440;DHT22;13365;52.208;5.488;2024-03-06T12:51:33;18.40;96.90
25440;DHT22;13365;52.208;5.488;2024-03-06T12:53:58;18.50;96.60
25440;DHT22;13365;52.208;5.488;2024-03-06T12:56:24;18.60;97.40
25440;DHT22;13365;52.208;5.488;2024-03-06T12:58:50;18.70;96.60
25440;DHT22;13365;52.208;5.488;2024-03-06T13:01:16;18.90;96.00
25440;DHT22;13365;52.208;5.488;2024-03-06T13:03:42;18.80;94.70
25440;DHT22;13365;52.208;5.488;2024-03-06T13:06:07;18.60;94.80
25440;DHT22;13365;52.208;5.488;2024-03-06T13:08:33;18.70;95.10
25440;DHT22;13365;52.208;5.488;2024-03-06T13:10:58;18.60;94.70
25440;DHT22;13365;52.208;5.488;2024-03-06T13:13:24;18.70;94.90
25440;DHT22;13365;52.208;5.488;2024-03-06T13:15:50;18.70;95.30
25440;DHT22;13365;52.208;5.488;2024-03-06T13:18:16;18.80;95.00
25440;DHT22;13365;52.208;5.488;2024-03-06T13:20:41;18.90;94.30
25440;DHT22;13365;52.208;5.488;2024-03-06T13:23:07;18.90;93.80
25440;DHT22;13365;52.208;5.488;2024-03-06T13:25:33;18.80;94.60
25440;DHT22;13365;52.208;5.488;2024-03-06T13:27:58;18.90;94.20
25440;DHT22;13365;52.208;5.488;2024-03-06T13:30:24;18.70;94.10
25440;DHT22;13365;52.208;5.488;2024-03-06T13:32:50;18.90;94.60
25440;DHT22;13365;52.208;5.488;2024-03-06T13:35:15;18.80;94.20
25440;DHT22;13365;52.208;5.488;2024-03-06T13:37:42;19.00;95.20
25440;DHT22;13365;52.208;5.488;2024-03-06T13:40:08;18.90;94.70
25440;DHT22;13365;52.208;5.488;2024-03-06T13:42:34;19.00;94.40
25440;DHT22;13365;52.208;5.488;2024-03-06T13:45:00;19.00;93.60
25440;DHT22;13365;52.208;5.488;2024-03-06T13:47:26;19.30;93.80
25440;DHT22;13365;52.208;5.488;2024-03-06T13:49:53;19.30;92.80
25440;DHT22;13365;52.208;5.488;2024-03-06T13:52:20;19.50;92.80
25440;DHT22;13365;52.208;5.488;2024-03-06T13:54:46;19.50;93.30
25440;DHT22;13365;52.208;5.488;2024-03-06T13:57:11;19.50;92.60
25440;DHT22;13365;52.208;5.488;2024-03-06T13:59:37;19.60;92.00
25440;DHT22;13365;52.208;5.488;2024-03-06T14:02:03;19.50;91.30
25440;DHT22;13365;52.208;5.488;2024-03-06T14:04:29;19.40;92.50
25440;DHT22;13365;52.208;5.488;2024-03-06T14:06:54;19.40;91.50
25440;DHT22;13365;52.208;5.488;2024-03-06T14:09:21;19.00;91.50
25440;DHT22;13365;52.208;5.488;2024-03-06T14:11:52;18.90;92.60
25440;DHT22;13365;52.208;5.488;2024-03-06T14:14:18;18.90;92.20
25440;DHT22;13365;52.208;5.488;2024-03-06T14:16:44;18.80;92.20
25440;DHT22;13365;52.208;5.488;2024-03-06T14:19:09;18.80;91.40
25440;DHT22;13365;52.208;5.488;2024-03-06T14:21:36;18.60;90.90
25440;DHT22;13365;52.208;5.488;2024-03-06T14:24:01;18.40;91.30
25440;DHT22;13365;52.208;5.488;2024-03-06T14:26:31;18.60;91.70
25440;DHT22;13365;52.208;5.488;2024-03-06T14:28:58;18.70;90.00
25440;DHT22;13365;52.208;5.488;2024-03-06T14:31:23;18.60;90.30
25440;DHT22;13365;52.208;5.488;2024-03-06T14:33:49;18.80;90.40
25440;DHT22;13365;52.208;5.488;2024-03-06T14:36:15;18.70;90.50
25440;DHT22;13365;52.208;5.488;2024-03-06T14:38:41;18.50;91.10
25440;DHT22;13365;52.208;5.488;2024-03-06T14:41:06;18.50;91.70
25440;DHT22;13365;52.208;5.488;2024-03-06T14:43:32;18.60;92.70
25440;DHT22;13365;52.208;5.488;2024-03-06T14:46:06;19.10;92.80
25440;DHT22;13365;52.208;5.488;2024-03-06T14:48:33;19.00;91.00
25440;DHT22;13365;52.208;5.488;2024-03-06T14:51:00;19.20;90.20
25440;DHT22;13365;52.208;5.488;2024-03-06T14:53:25;19.40;90.00
25440;DHT22;13365;52.208;5.488;2024-03-06T14:55:51;19.50;91.00
25440;DHT22;13365;52.208;5.488;2024-03-06T14:58:16;19.30;89.30
25440;DHT22;13365;52.208;5.488;2024-03-06T15:00:41;19.40;88.80
25440;DHT22;13365;52.208;5.488;2024-03-06T15:03:07;19.70;87.50
25440;DHT22;13365;52.208;5.488;2024-03-06T15:05:33;19.90;89.30
25440;DHT22;13365;52.208;5.488;2024-03-06T15:07:59;20.30;86.40
25440;DHT22;13365;52.208;5.488;2024-03-06T15:10:25;20.70;85.40
25440;DHT22;13365;52.208;5.488;2024-03-06T15:12:50;20.90;84.10
25440;DHT22;13365;52.208;5.488;2024-03-06T15:15:16;21.20;84.70
25440;DHT22;13365;52.208;5.488;2024-03-06T15:17:41;21.20;83.10
25440;DHT22;13365;52.208;5.488;2024-03-06T15:20:07;21.20;82.30
25440;DHT22;13365;52.208;5.488;2024-03-06T15:22:36;20.90;82.00
25440;DHT22;13365;52.208;5.488;2024-03-06T15:25:10;19.80;85.60
25440;DHT22;13365;52.208;5.488;2024-03-06T15:27:36;19.40;89.50
25440;DHT22;13365;52.208;5.488;2024-03-06T15:30:02;19.20;87.90
25440;DHT22;13365;52.208;5.488;2024-03-06T15:32:28;19.10;90.00